createdAt,value
2023-03-25T00:01:15.872Z,0.70
2023-03-25T00:03:46.031Z,0.77
2023-03-25T00:06:13.313Z,0.80
2023-03-25T00:08:40.423Z,0.80
2023-03-25T00:11:09.903Z,0.65
2023-03-25T00:13:44.176Z,0.77
2023-03-25T00:16:18.375Z,0.90
2023-03-25T00:18:50.493Z,0.55
2023-03-25T00:21:20.641Z,0.73
2023-03-25T00:23:50.573Z,1.00
2023-03-25T00:26:18.197Z,0.88
2023-03-25T00:28:47.564Z,0.70
2023-03-25T00:31:17.122Z,0.38
2023-03-25T00:33:44.271Z,0.75
2023-03-25T00:36:20.298Z,0.60
2023-03-25T00:38:51.312Z,1.10
2023-03-25T00:41:24.790Z,0.60
2023-03-25T00:43:56.177Z,0.68
2023-03-25T00:46:28.818Z,0.50
2023-03-25T00:48:57.655Z,0.65
2023-03-25T00:51:25.549Z,0.85
2023-03-25T00:53:54.334Z,0.70
2023-03-25T00:56:25.075Z,0.98
2023-03-25T00:58:51.883Z,0.52
2023-03-25T01:01:28.453Z,1.30
2023-03-25T01:04:04.214Z,0.90
2023-03-25T01:06:35.487Z,0.60
2023-03-25T01:09:07.459Z,0.82
2023-03-25T01:11:37.512Z,0.60
2023-03-25T01:14:10.563Z,0.73
2023-03-25T01:16:38.514Z,0.80
2023-03-25T01:19:07.593Z,0.50
2023-03-25T01:21:41.178Z,0.70
2023-03-25T01:24:10.746Z,1.00
2023-03-25T01:26:37.539Z,0.88
2023-03-25T01:29:05.488Z,1.00
2023-03-25T01:31:33.197Z,0.57
2023-03-25T01:33:59.898Z,0.43
2023-03-25T01:36:55.178Z,0.90
2023-03-25T01:39:23.104Z,1.10
2023-03-25T01:41:55.371Z,0.57
2023-03-25T01:44:51.266Z,0.80
2023-03-25T01:47:18.316Z,0.90
2023-03-25T01:49:46.226Z,0.50
2023-03-25T01:52:20.550Z,0.73
2023-03-25T01:54:51.750Z,0.68
2023-03-25T01:57:23.301Z,0.50
2023-03-25T01:59:56.676Z,0.40
2023-03-25T02:02:35.710Z,0.60
2023-03-25T02:05:13.406Z,0.38
2023-03-25T02:07:47.201Z,0.50
2023-03-25T02:10:14.755Z,0.68
2023-03-25T02:12:42.103Z,0.38
2023-03-25T02:15:11.553Z,0.68
2023-03-25T02:17:44.208Z,0.40
2023-03-25T02:23:21.161Z,0.70
2023-03-25T02:26:11.465Z,0.50
2023-03-25T02:28:40.576Z,0.45
2023-03-25T02:31:45.424Z,0.90
2023-03-25T02:34:45.678Z,0.65
2023-03-25T02:37:32.332Z,0.60
2023-03-25T02:40:20.718Z,0.60
2023-03-25T02:43:01.097Z,0.45
2023-03-25T02:45:39.808Z,0.40
2023-03-25T02:48:17.628Z,0.30
2023-03-25T02:50:55.713Z,0.50
2023-03-25T02:53:47.544Z,0.65
2023-03-25T02:57:19.921Z,0.40
2023-03-25T02:59:53.408Z,0.25
2023-03-25T03:02:31.623Z,0.50
2023-03-25T03:05:00.321Z,0.93
2023-03-25T03:07:42.778Z,0.30
2023-03-25T03:13:40.310Z,0.45
2023-03-25T03:16:11.200Z,0.50
2023-03-25T03:18:50.946Z,0.45
2023-03-25T03:21:32.325Z,1.33
2023-03-25T03:24:11.665Z,0.88
2023-03-25T03:27:03.207Z,0.45
2023-03-25T03:29:39.040Z,0.90
2023-03-25T03:32:15.630Z,0.50
2023-03-25T03:35:07.395Z,0.43
2023-03-25T03:37:40.593Z,0.45
2023-03-25T03:40:16.008Z,0.60
2023-03-25T03:43:17.282Z,0.60
2023-03-25T03:45:48.600Z,0.70
2023-03-25T03:48:28.855Z,0.40
2023-03-25T03:51:02.369Z,0.50
2023-03-25T03:53:35.670Z,0.50
2023-03-25T03:56:21.390Z,0.52
2023-03-25T03:58:53.763Z,0.60
2023-03-25T04:01:46.962Z,1.38
2023-03-25T04:07:19.734Z,1.52
2023-03-25T04:10:22.864Z,0.85
2023-03-25T04:12:55.878Z,0.75
2023-03-25T04:15:22.541Z,0.55
2023-03-25T04:17:51.978Z,1.20
2023-03-25T04:20:26.699Z,0.90
2023-03-25T04:22:56.820Z,2.80
2023-03-25T04:25:34.709Z,4.45
2023-03-25T04:28:04.913Z,1.80
2023-03-25T04:30:35.693Z,3.22
2023-03-25T04:33:11.855Z,3.20
2023-03-25T04:35:40.790Z,2.10
2023-03-25T04:38:11.807Z,3.10
2023-03-25T04:40:40.765Z,2.33
2023-03-25T04:43:07.540Z,1.40
2023-03-25T04:45:41.752Z,2.30
2023-03-25T04:48:23.572Z,0.70
2023-03-25T04:50:54.172Z,1.60
2023-03-25T04:53:24.890Z,0.65
2023-03-25T04:55:54.475Z,1.50
2023-03-25T04:58:28.073Z,1.10
2023-03-25T05:00:54.803Z,0.95
2023-03-25T05:03:26.530Z,1.25
2023-03-25T05:05:53.350Z,0.85
2023-03-25T05:08:23.397Z,0.60
2023-03-25T05:10:52.572Z,1.02
2023-03-25T05:13:19.363Z,0.80
2023-03-25T05:15:47.167Z,0.60
2023-03-25T05:18:16.423Z,0.90
2023-03-25T05:20:46.238Z,0.98
2023-03-25T05:23:16.970Z,0.90
2023-03-25T05:25:46.777Z,0.80
2023-03-25T05:28:17.369Z,1.35
2023-03-25T05:30:46.426Z,1.00
2023-03-25T05:33:18.205Z,3.33
2023-03-25T05:36:13.021Z,1.03
2023-03-25T05:38:43.622Z,0.90
2023-03-25T05:41:15.777Z,0.75
2023-03-25T05:43:50.184Z,0.93
2023-03-25T05:46:18.476Z,1.08
2023-03-25T05:48:48.538Z,0.82
2023-03-25T05:51:20.976Z,0.82
2023-03-25T05:54:10.102Z,0.93
2023-03-25T05:57:40.197Z,1.35
2023-03-25T06:00:32.412Z,1.15
2023-03-25T06:08:50.950Z,0.93
2023-03-25T06:11:19.238Z,0.70
2023-03-25T06:13:50.719Z,1.40
2023-03-25T06:16:26.927Z,1.15
2023-03-25T06:18:58.747Z,0.95
2023-03-25T06:21:52.809Z,0.87
2023-03-25T06:24:19.617Z,1.10
2023-03-25T06:26:48.656Z,1.17
2023-03-25T06:29:18.365Z,0.68
2023-03-25T06:43:34.216Z,0.88
2023-03-25T06:46:24.840Z,1.00
2023-03-25T06:49:14.276Z,1.00
2023-03-25T06:51:44.074Z,1.20
2023-03-25T06:54:10.836Z,1.00
2023-03-25T06:56:38.786Z,1.02
2023-03-25T06:59:05.832Z,0.90
2023-03-25T07:01:32.589Z,0.63
2023-03-25T07:04:00.815Z,0.80
2023-03-25T07:06:31.784Z,0.73
2023-03-25T07:09:02.836Z,0.90
2023-03-25T07:11:31.043Z,0.70
2023-03-25T07:14:28.385Z,0.82
2023-03-25T07:16:56.745Z,0.82
2023-03-25T07:19:23.535Z,0.85
2023-03-25T07:21:50.441Z,0.93
2023-03-25T07:24:19.747Z,0.73
2023-03-25T07:27:18.827Z,0.82
2023-03-25T07:30:35.457Z,0.88
2023-03-25T07:33:12.614Z,0.80
2023-03-25T07:35:41.780Z,0.95
2023-03-25T07:38:12.512Z,1.00
2023-03-25T07:40:40.305Z,0.82
2023-03-25T07:43:06.953Z,0.80
2023-03-25T07:45:50.724Z,1.00
2023-03-25T07:48:17.418Z,1.00
2023-03-25T07:50:45.271Z,0.65
2023-03-25T07:53:14.815Z,1.17
2023-03-25T07:55:44.772Z,0.80
2023-03-25T07:58:12.526Z,0.52
2023-03-25T08:00:41.645Z,0.40
2023-03-25T08:03:11.256Z,0.70
2023-03-25T08:05:42.486Z,0.57
2023-03-25T08:08:11.453Z,0.55
2023-03-25T08:10:42.812Z,0.85
2023-03-25T08:13:10.423Z,0.80
2023-03-25T08:15:40.212Z,0.80
2023-03-25T08:18:10.993Z,0.70
2023-03-25T08:20:49.509Z,0.82
2023-03-25T08:23:19.076Z,0.70
2023-03-25T08:25:48.720Z,0.68
2023-03-25T08:28:20.125Z,0.52
2023-03-25T08:30:50.574Z,1.10
2023-03-25T08:33:18.198Z,0.93
2023-03-25T08:35:50.482Z,0.60
2023-03-25T08:38:18.644Z,0.60
2023-03-25T08:40:47.667Z,0.73
2023-03-25T08:43:16.959Z,0.60
2023-03-25T08:45:43.693Z,0.50
2023-03-25T08:48:13.631Z,0.63
2023-03-25T08:50:40.237Z,0.90
2023-03-25T08:53:07.252Z,0.47
2023-03-25T08:55:36.577Z,0.55
2023-03-25T08:58:09.895Z,0.65
2023-03-25T09:00:40.516Z,0.47
2023-03-25T09:03:07.398Z,0.43
2023-03-25T09:05:39.170Z,0.60
2023-03-25T09:08:06.772Z,0.80
2023-03-25T09:10:33.838Z,0.40
2023-03-25T09:13:03.008Z,0.50
2023-03-25T09:15:33.586Z,0.70
2023-03-25T09:18:15.173Z,0.63
2023-03-25T09:20:42.068Z,0.40
2023-03-25T09:23:11.673Z,0.70
2023-03-25T09:25:42.267Z,0.75
2023-03-25T09:28:09.162Z,0.47
2023-03-25T09:30:41.191Z,0.40
2023-03-25T09:33:08.121Z,0.40
2023-03-25T09:35:40.099Z,0.55
2023-03-25T09:38:06.865Z,0.40
2023-03-25T09:40:34.831Z,0.70
2023-03-25T09:43:28.603Z,0.40
2023-03-25T09:46:01.131Z,0.43
2023-03-25T09:48:43.506Z,0.55
2023-03-25T09:51:35.255Z,0.60
2023-03-25T09:54:33.668Z,0.55
2023-03-25T09:57:06.495Z,0.43
2023-03-25T09:59:49.447Z,0.45
2023-03-25T10:05:23.511Z,0.40
2023-03-25T10:08:17.697Z,0.68
2023-03-25T10:10:58.930Z,0.50
2023-03-25T10:13:38.789Z,0.40
2023-03-25T10:16:14.236Z,1.05
2023-03-25T10:19:01.600Z,0.63
2023-03-25T10:21:45.988Z,0.60
2023-03-25T10:24:15.902Z,0.63
2023-03-25T10:27:19.836Z,0.55
2023-03-25T10:29:52.083Z,0.60
2023-03-25T10:32:37.084Z,0.65
2023-03-25T10:35:09.677Z,0.60
2023-03-25T10:40:29.512Z,0.50
2023-03-25T10:43:13.264Z,1.50
2023-03-25T10:45:41.695Z,0.60
2023-03-25T10:48:27.566Z,0.93
2023-03-25T10:51:11.175Z,0.80
2023-03-25T10:53:41.356Z,0.52
2023-03-25T10:56:20.934Z,0.75
2023-03-25T10:58:55.115Z,0.75
2023-03-25T11:01:38.966Z,1.13
2023-03-25T11:04:08.789Z,1.60
2023-03-25T11:06:45.313Z,1.23
2023-03-25T11:09:14.539Z,0.77
2023-03-25T11:11:46.761Z,0.80
2023-03-25T11:14:20.688Z,0.63
2023-03-25T11:16:54.439Z,0.82
2023-03-25T11:19:28.263Z,0.75
2023-03-25T11:22:09.106Z,0.50
2023-03-25T11:24:44.780Z,0.50
2023-03-25T11:27:20.569Z,0.60
2023-03-25T11:29:56.170Z,0.63
2023-03-25T11:32:43.023Z,0.90
2023-03-25T11:35:25.959Z,0.70
2023-03-25T11:38:01.983Z,0.60
2023-03-25T11:40:34.004Z,0.52
2023-03-25T11:43:04.628Z,0.80
2023-03-25T11:45:39.604Z,0.70
2023-03-25T11:48:19.377Z,0.80
2023-03-25T11:50:55.225Z,0.80
2023-03-25T11:53:25.572Z,0.82
2023-03-25T11:58:37.716Z,0.70
2023-03-25T12:01:07.220Z,0.63
2023-03-25T12:03:35.103Z,1.00
2023-03-25T12:06:18.466Z,0.60
2023-03-25T12:08:52.504Z,0.80
2023-03-25T12:11:43.052Z,0.63
2023-03-25T12:14:43.410Z,0.50
2023-03-25T12:17:25.548Z,0.80
2023-03-25T12:20:14.615Z,0.60
2023-03-25T12:23:20.038Z,0.80
2023-03-25T12:26:26.335Z,0.82
2023-03-25T12:29:18.139Z,0.70
2023-03-25T12:32:14.326Z,0.70
2023-03-25T12:35:16.035Z,0.55
2023-03-25T12:38:05.988Z,0.95
2023-03-25T12:41:15.420Z,0.80
2023-03-25T12:44:03.857Z,0.82
2023-03-25T12:47:23.303Z,0.60
2023-03-25T12:50:01.021Z,0.90
2023-03-25T12:52:37.557Z,0.80
2023-03-25T12:55:11.114Z,0.60
2023-03-25T12:57:52.988Z,0.60
2023-03-25T13:00:31.984Z,0.50
2023-03-25T13:03:19.445Z,0.55
2023-03-25T13:06:03.114Z,0.60
2023-03-25T13:08:48.611Z,0.63
2023-03-25T13:11:22.847Z,0.60
2023-03-25T13:13:52.951Z,0.45
2023-03-25T13:16:24.907Z,0.60
2023-03-25T13:19:05.300Z,0.75
2023-03-25T13:21:37.408Z,0.75
2023-03-25T13:24:26.234Z,1.17
2023-03-25T13:26:55.103Z,0.40
2023-03-25T13:29:31.040Z,0.82
2023-03-25T13:32:06.420Z,0.88
2023-03-25T13:34:39.110Z,0.80
2023-03-25T13:37:18.056Z,0.70
2023-03-25T13:40:12.590Z,0.80
2023-03-25T13:42:57.463Z,0.80
2023-03-25T13:45:30.767Z,0.80
2023-03-25T13:48:24.530Z,0.57
2023-03-25T13:50:51.932Z,0.47
2023-03-25T13:53:28.321Z,0.63
2023-03-25T13:56:27.242Z,0.43
2023-03-25T13:59:09.085Z,2.30
2023-03-25T14:01:54.102Z,1.05
2023-03-25T14:04:56.393Z,0.60
2023-03-25T14:07:44.794Z,0.77
2023-03-25T14:10:29.723Z,0.57
2023-03-25T14:13:03.853Z,0.50
2023-03-25T14:15:37.128Z,0.60
2023-03-25T14:18:10.627Z,2.03
2023-03-25T14:20:47.767Z,0.57
2023-03-25T14:23:20.279Z,0.88
2023-03-25T14:25:56.735Z,1.30
2023-03-25T14:28:43.025Z,1.70
2023-03-25T14:31:35.474Z,1.75
2023-03-25T14:34:02.149Z,1.00
2023-03-25T14:36:38.947Z,0.70
2023-03-25T14:39:28.548Z,0.60
2023-03-25T14:42:02.757Z,1.00
2023-03-25T14:44:53.438Z,0.70
2023-03-25T14:47:29.656Z,1.00
2023-03-25T14:50:21.217Z,0.82
2023-03-25T14:52:52.162Z,0.80
2023-03-25T14:55:56.266Z,0.75
2023-03-25T14:58:27.315Z,1.08
2023-03-25T15:01:16.958Z,0.98
2023-03-25T15:03:44.996Z,0.50
2023-03-25T15:06:18.626Z,0.73
2023-03-25T15:08:55.873Z,0.80
2023-03-25T15:11:34.560Z,1.20
2023-03-25T15:14:10.181Z,0.98
2023-03-25T15:16:49.193Z,1.00
2023-03-25T15:19:18.099Z,6.07
2023-03-25T15:22:00.395Z,0.63
2023-03-25T15:24:33.994Z,0.80
2023-03-25T15:27:21.316Z,0.73
2023-03-25T15:30:16.419Z,1.10
2023-03-25T15:32:56.737Z,0.40
2023-03-25T15:35:44.460Z,0.93
2023-03-25T15:38:46.906Z,0.90
2023-03-25T15:42:02.961Z,0.77
2023-03-25T15:44:55.644Z,0.73
2023-03-25T15:47:29.937Z,0.65
2023-03-25T15:50:20.530Z,0.65
2023-03-25T15:53:01.381Z,0.80
2023-03-25T15:55:39.277Z,0.50
2023-03-25T15:58:30.053Z,0.90
2023-03-25T16:01:07.853Z,0.85
2023-03-25T16:03:35.614Z,0.70
2023-03-25T16:06:05.990Z,0.80
2023-03-25T16:08:38.849Z,1.08
2023-03-25T16:11:20.818Z,0.65
2023-03-25T16:14:07.638Z,0.73
2023-03-25T16:16:38.773Z,1.15
2023-03-25T16:19:15.492Z,1.00
2023-03-25T16:21:42.276Z,0.73
2023-03-25T16:24:12.037Z,1.25
2023-03-25T16:26:45.496Z,0.93
2023-03-25T16:29:17.322Z,0.93
2023-03-25T16:31:57.736Z,3.75
2023-03-25T16:34:30.769Z,5.57
2023-03-25T16:36:58.432Z,1.85
2023-03-25T16:39:27.287Z,0.90
2023-03-25T16:42:32.111Z,0.80
2023-03-25T16:45:01.390Z,1.10
2023-03-25T16:47:32.670Z,1.48
2023-03-25T16:50:01.019Z,0.70
2023-03-25T16:52:31.595Z,0.73
2023-03-25T16:54:58.350Z,0.80
2023-03-25T16:57:28.064Z,0.93
2023-03-25T16:59:55.868Z,1.23
2023-03-25T17:02:40.000Z,1.15
2023-03-25T17:05:29.061Z,0.50
2023-03-25T17:08:07.332Z,1.60
2023-03-25T17:10:47.726Z,0.80
2023-03-25T17:13:22.655Z,0.70
2023-03-25T17:15:51.002Z,0.75
2023-03-25T17:18:18.652Z,0.70
2023-03-25T17:20:50.957Z,1.23
2023-03-25T17:23:18.266Z,1.00
2023-03-25T17:25:55.879Z,0.98
2023-03-25T17:28:40.457Z,0.90
2023-03-25T17:31:28.907Z,1.80
2023-03-25T17:34:07.062Z,1.58
2023-03-25T17:36:44.682Z,4.75
2023-03-25T17:39:25.320Z,3.88
2023-03-25T17:42:00.782Z,2.25
2023-03-25T17:44:36.858Z,2.80
2023-03-25T17:47:29.191Z,1.88
2023-03-25T17:49:56.729Z,1.40
2023-03-25T17:52:27.873Z,0.88
2023-03-25T17:54:59.238Z,1.48
2023-03-25T17:57:27.041Z,1.30
2023-03-25T17:59:54.971Z,1.77
2023-03-25T18:02:23.457Z,3.03
2023-03-25T18:04:52.565Z,2.58
2023-03-25T18:07:22.308Z,1.90
2023-03-25T18:09:54.236Z,2.40
2023-03-25T18:12:27.437Z,1.00
2023-03-25T18:14:56.539Z,0.82
2023-03-25T18:17:25.271Z,1.08
2023-03-25T18:19:51.999Z,1.33
2023-03-25T18:22:20.383Z,0.98
2023-03-25T18:24:47.416Z,0.88
2023-03-25T18:27:16.499Z,0.80
2023-03-25T18:29:43.116Z,0.80
2023-03-25T18:32:14.653Z,1.08
2023-03-25T18:34:41.547Z,0.90
2023-03-25T18:37:10.504Z,1.60
2023-03-25T18:39:37.135Z,1.05
2023-03-25T18:42:06.000Z,1.13
2023-03-25T18:44:37.969Z,1.20
2023-03-25T18:47:04.690Z,1.15
2023-03-25T18:49:33.435Z,0.70
2023-03-25T18:52:05.675Z,1.53
2023-03-25T18:54:32.279Z,0.80
2023-03-25T18:56:59.150Z,0.60
2023-03-25T18:59:25.815Z,0.90
2023-03-25T19:01:55.315Z,0.80
2023-03-25T19:04:26.471Z,1.00
2023-03-25T19:06:55.056Z,0.90
2023-03-25T19:09:25.410Z,0.77
2023-03-25T19:11:55.751Z,1.00
2023-03-25T19:14:26.034Z,1.33
2023-03-25T19:17:03.722Z,1.15
2023-03-25T19:19:30.989Z,1.42
2023-03-25T19:22:03.125Z,3.33
2023-03-25T19:24:32.852Z,1.33
2023-03-25T19:27:00.145Z,2.75
2023-03-25T19:29:27.027Z,2.33
2023-03-25T19:31:59.001Z,4.53
2023-03-25T19:34:26.965Z,1.85
2023-03-25T19:37:01.990Z,1.30
2023-03-25T19:39:31.371Z,1.70
2023-03-25T19:42:03.638Z,1.35
2023-03-25T19:44:35.858Z,0.77
2023-03-25T19:47:08.007Z,1.10
2023-03-25T19:49:40.079Z,1.02
2023-03-25T19:52:08.307Z,0.98
2023-03-25T19:54:38.044Z,1.30
2023-03-25T19:57:08.795Z,1.05
2023-03-25T19:59:36.420Z,1.73
2023-03-25T20:02:03.308Z,1.58
2023-03-25T20:04:33.472Z,1.30
2023-03-25T20:07:02.528Z,1.20
2023-03-25T20:09:35.151Z,1.15
2023-03-25T20:14:31.449Z,0.75
2023-03-25T20:16:58.276Z,0.63
2023-03-25T20:19:26.211Z,0.60
2023-03-25T20:21:56.407Z,0.60
2023-03-25T20:24:23.023Z,0.63
2023-03-25T20:26:52.041Z,0.90
2023-03-25T20:29:22.374Z,0.80
2023-03-25T20:31:49.984Z,0.73
2023-03-25T20:34:19.090Z,0.70
2023-03-25T20:36:49.196Z,0.85
2023-03-25T20:39:16.846Z,1.00
2023-03-25T20:41:48.955Z,0.82
2023-03-25T20:44:15.967Z,0.80
2023-03-25T20:46:45.556Z,2.58
2023-03-25T20:49:16.235Z,2.70
2023-03-25T20:51:47.300Z,1.38
2023-03-25T20:54:14.356Z,1.15
2023-03-25T20:56:41.263Z,1.15
2023-03-25T20:59:11.848Z,3.40
2023-03-25T21:01:39.363Z,3.75
2023-03-25T21:04:06.815Z,3.67
2023-03-25T21:06:33.640Z,6.43
2023-03-25T21:09:06.909Z,3.75
2023-03-25T21:11:34.400Z,2.58
2023-03-25T21:14:01.211Z,1.88
2023-03-25T21:16:28.059Z,1.70
2023-03-25T21:18:57.502Z,1.35
2023-03-25T21:21:24.934Z,1.00
2023-03-25T21:24:03.633Z,1.20
2023-03-25T21:26:30.723Z,1.20
2023-03-25T21:29:02.599Z,1.23
2023-03-25T21:31:31.694Z,1.00
2023-03-25T21:34:01.998Z,1.00
2023-03-25T21:36:32.059Z,0.80
2023-03-25T21:39:00.778Z,0.55
2023-03-25T21:41:29.927Z,0.70
2023-03-25T21:43:56.714Z,0.80
2023-03-25T21:46:26.381Z,1.15
2023-03-25T21:48:54.205Z,1.85
2023-03-25T21:51:21.828Z,0.98
2023-03-25T21:53:49.468Z,0.70
2023-03-25T21:56:24.300Z,1.05
2023-03-25T21:58:52.094Z,1.52
2023-03-25T22:01:27.648Z,2.05
2023-03-25T22:03:59.451Z,1.30
2023-03-25T22:06:32.517Z,1.80
2023-03-25T22:09:04.392Z,3.38
2023-03-25T22:11:33.382Z,11.40
2023-03-25T22:14:02.364Z,6.18
2023-03-25T22:16:30.328Z,7.10
2023-03-25T22:18:57.233Z,3.83
2023-03-25T22:21:28.984Z,0.93
2023-03-25T22:24:03.429Z,2.80
2023-03-25T22:26:31.948Z,7.35
2023-03-25T22:29:03.024Z,2.75
2023-03-25T22:31:32.597Z,1.60
2023-03-25T22:34:09.907Z,4.53
2023-03-25T22:36:44.330Z,6.05
2023-03-25T22:39:14.563Z,3.40
2023-03-25T22:41:41.306Z,3.63
2023-03-25T22:44:07.883Z,3.00
2023-03-25T22:46:38.015Z,1.63
2023-03-25T22:49:04.765Z,1.15
2023-03-25T22:51:33.177Z,1.13
2023-03-25T22:54:00.095Z,1.55
2023-03-25T22:56:32.982Z,3.00
2023-03-25T22:59:01.362Z,5.28
2023-03-25T23:01:28.524Z,2.60
2023-03-25T23:03:56.955Z,2.50
2023-03-25T23:06:28.258Z,2.28
2023-03-25T23:08:55.868Z,2.42
2023-03-25T23:11:24.700Z,2.58
2023-03-25T23:13:54.571Z,3.33
2023-03-25T23:16:25.427Z,2.17
2023-03-25T23:19:05.154Z,2.88
2023-03-25T23:21:35.466Z,1.65
2023-03-25T23:24:11.848Z,0.82
2023-03-25T23:26:40.028Z,0.85
2023-03-25T23:29:11.925Z,0.80
2023-03-25T23:32:07.357Z,1.02
2023-03-25T23:34:34.880Z,0.90
2023-03-25T23:37:06.779Z,1.08
2023-03-25T23:39:39.512Z,0.98
2023-03-25T23:44:33.586Z,0.80
2023-03-25T23:47:03.138Z,1.35
2023-03-25T23:49:33.146Z,2.38
2023-03-25T23:52:00.162Z,2.03
2023-03-25T23:54:29.471Z,2.10
2023-03-25T23:57:01.503Z,1.85
2023-03-25T23:59:28.192Z,1.45
